Time;durP1;ratioP1;P1;durP2;ratioP2;P2;SDS_P1;SDS_P2;PMS_P1;PMS_P2;Temp;Humidity;BMP_temperature;BMP_pressure;BME280_temperature;BME280_humidity;BME280_pressure;Samples;Min_cycle;Max_cycle;Signal;HPM_P1;HPM_P2
2022/11/22 00:02:12;;;;;;;19.83;12.37;;;-2.80;99.90;-3.20;99082.00;;;;5039376;27;110514;-62
2022/11/22 00:04:38;;;;;;;17.33;10.60;;;-2.80;99.90;-3.30;99082.00;;;;5028204;27;109436;-64
2022/11/22 00:07:04;;;;;;;18.27;10.53;;;-2.80;99.90;-3.30;99074.00;;;;5039043;27;113070;-63
2022/11/22 00:09:29;;;;;;;20.47;10.63;;;-2.70;99.90;-3.30;99073.00;;;;5040972;27;112441;-63
2022/11/22 00:11:55;;;;;;;20.57;11.43;;;-2.80;99.90;-3.30;99075.00;;;;5052277;27;83788;-62
2022/11/22 00:14:21;;;;;;;15.80;9.57;;;-2.80;99.90;-3.30;99070.00;;;;5034561;27;99739;-62
2022/11/22 00:16:46;;;;;;;18.33;9.67;;;-2.90;99.90;-3.30;99076.00;;;;5032376;27;112686;-63
2022/11/22 00:19:12;;;;;;;19.03;10.07;;;-2.80;99.90;-3.30;99078.00;;;;5032150;27;112487;-62
2022/11/22 00:21:38;;;;;;;19.40;10.77;;;-1.90;99.90;-3.30;99072.00;;;;5038460;27;110799;-61
2022/11/22 00:24:04;;;;;;;20.83;11.10;;;-2.80;99.90;-3.30;99052.00;;;;5033421;27;108000;-62
2022/11/22 00:26:29;;;;;;;19.13;9.80;;;-2.80;99.90;-3.30;99057.00;;;;5038362;27;103789;-62
2022/11/22 00:28:55;;;;;;;24.13;11.30;;;-2.90;99.90;-3.40;99055.00;;;;5039262;27;110839;-61
2022/11/22 00:31:21;;;;;;;17.77;9.90;;;-2.90;99.90;-3.30;99055.00;;;;5053236;27;109949;-62
2022/11/22 00:33:47;;;;;;;21.67;11.33;;;-2.90;99.90;-3.40;99048.00;;;;5044754;27;82841;-62
2022/11/22 00:36:13;;;;;;;21.30;10.67;;;-2.90;99.90;-3.40;99035.00;;;;5033360;27;112738;-61
2022/11/22 00:38:38;;;;;;;16.73;10.87;;;-2.80;99.90;-3.40;99029.00;;;;5039250;27;83494;-62
2022/11/22 00:41:04;;;;;;;16.87;9.93;;;-2.80;99.90;-3.40;99036.00;;;;5043332;27;98052;-61
2022/11/22 00:43:30;;;;;;;18.73;10.33;;;-3.00;99.90;-3.30;99025.00;;;;5042958;27;109509;-61
2022/11/22 00:45:56;;;;;;;17.63;11.27;;;-2.80;99.90;-3.30;99014.00;;;;5044066;27;84573;-62
2022/11/22 00:48:21;;;;;;;19.97;10.90;;;-2.90;99.90;-3.30;99018.00;;;;5040645;27;109873;-63
2022/11/22 00:50:50;;;;;;;18.07;11.23;;;-2.80;99.90;-3.30;99020.00;;;;5051639;27;112597;-61
2022/11/22 00:53:15;;;;;;;20.03;11.13;;;-2.90;99.90;-3.30;99013.00;;;;5042191;27;83447;-62
2022/11/22 00:55:41;;;;;;;22.63;11.57;;;-2.90;99.90;-3.30;99008.00;;;;5043300;27;104671;-63
2022/11/22 00:58:07;;;;;;;18.13;10.83;;;-2.90;99.90;-3.30;99016.00;;;;5041317;27;84846;-62
2022/11/22 01:00:33;;;;;;;21.40;11.17;;;-2.80;99.90;-3.20;99007.00;;;;5041170;27;111586;-63
2022/11/22 01:02:58;;;;;;;19.57;11.87;;;-2.20;99.90;-3.20;99013.00;;;;5042545;27;94541;-63
2022/11/22 01:05:24;;;;;;;16.40;10.67;;;-2.80;99.90;-3.20;99012.00;;;;5028438;27;111616;-62
2022/11/22 01:07:50;;;;;;;17.33;9.93;;;-2.70;99.90;-3.20;99015.00;;;;5051717;27;112065;-64
2022/11/22 01:10:15;;;;;;;22.53;12.67;;;-2.70;99.90;-3.20;99020.00;;;;5039891;27;111978;-63
2022/11/22 01:12:41;;;;;;;19.13;10.87;;;-2.70;99.90;-3.20;99033.00;;;;5042225;27;107115;-63
2022/11/22 01:15:07;;;;;;;18.97;10.23;;;-1.90;99.90;-3.20;99028.00;;;;5042001;27;110080;-63
2022/11/22 01:17:33;;;;;;;24.80;11.87;;;-2.70;99.90;-3.20;99023.00;;;;5025894;27;103970;-62
2022/11/22 01:19:59;;;;;;;21.13;11.13;;;-2.80;99.90;-3.20;99030.00;;;;5041160;27;113706;-63
2022/11/22 01:22:24;;;;;;;18.57;10.33;;;-2.70;99.90;-3.20;99028.00;;;;5038409;27;90641;-62
2022/11/22 01:24:50;;;;;;;20.03;11.13;;;-2.70;99.90;-3.20;99026.00;;;;5031606;27;112658;-62
2022/11/22 01:27:16;;;;;;;16.03;10.10;;;-2.70;99.90;-3.20;99028.00;;;;5023379;27;84778;-63
2022/11/22 01:29:41;;;;;;;16.77;10.93;;;-2.70;99.90;-3.10;99016.00;;;;5040356;27;112339;-63
2022/11/22 01:32:07;;;;;;;21.43;10.57;;;-2.70;99.90;-3.10;99025.00;;;;5038737;27;83728;-61
2022/11/22 01:34:33;;;;;;;19.57;11.47;;;-2.70;99.90;-3.10;99019.00;;;;5033410;27;112853;-62
2022/11/22 01:36:58;;;;;;;16.30;10.90;;;-3.40;99.90;-3.20;99025.00;;;;5042308;27;84671;-63
2022/11/22 01:39:24;;;;;;;20.27;11.33;;;-2.70;99.90;-3.10;99020.00;;;;5031638;27;113644;-63
2022/11/22 01:41:50;;;;;;;20.63;11.53;;;-2.70;99.90;-3.10;99021.00;;;;5033522;27;108277;-63
2022/11/22 01:44:25;;;;;;;19.37;12.73;;;-2.70;99.90;-3.10;99020.00;;;;5036323;27;113735;-64
2022/11/22 01:46:56;;;;;;;21.87;11.73;;;-2.70;99.90;-3.20;99013.00;;;;5054187;27;84322;-63
2022/11/22 01:49:39;;;;;;;20.10;12.53;;;-2.70;99.90;-3.20;99023.00;;;;5034881;27;87120;-63
2022/11/22 01:52:11;;;;;;;21.43;12.33;;;-2.70;99.90;-3.20;99000.00;;;;5041884;27;91073;-63
2022/11/22 01:54:40;;;;;;;17.27;10.67;;;-2.60;99.90;-3.20;99003.00;;;;5036183;27;87896;-63
2022/11/22 01:57:14;;;;;;;18.77;10.97;;;-2.70;99.90;-3.20;99007.00;;;;5013661;27;101966;-63
2022/11/22 01:59:47;;;;;;;16.33;10.63;;;-2.70;99.90;-3.20;99009.00;;;;5024134;27;83859;-64
2022/11/22 02:02:13;;;;;;;18.53;11.50;;;-2.70;99.90;-3.20;99002.00;;;;5041466;27;95877;-63
2022/11/22 02:04:40;;;;;;;21.77;11.23;;;-2.00;99.90;-3.20;98994.00;;;;5042497;27;112603;-64
2022/11/22 02:07:26;;;;;;;20.93;11.73;;;-3.60;99.90;-3.30;98997.00;;;;5035824;27;106298;-62
2022/11/22 02:09:52;;;;;;;24.90;12.37;;;-2.70;99.90;-3.20;98989.00;;;;5032259;27;83559;-62
2022/11/22 02:12:22;;;;;;;19.30;11.07;;;-2.70;99.90;-3.20;98993.00;;;;5018667;27;111762;-63
2022/11/22 02:14:48;;;;;;;23.07;12.40;;;-2.80;99.90;-3.20;98996.00;;;;5011332;27;101401;-63
2022/11/22 02:17:14;;;;;;;18.83;11.07;;;-2.90;99.90;-3.20;98992.00;;;;5024159;27;113371;-62
2022/11/22 02:19:47;;;;;;;24.53;12.10;;;-2.90;99.90;-3.30;98992.00;;;;5033256;27;112070;-63
2022/11/22 02:22:28;;;;;;;25.27;12.57;;;-2.80;99.90;-3.30;98991.00;;;;5039585;27;83635;-64
2022/11/22 02:25:35;;;;;;;19.40;12.70;;;-2.90;99.90;-3.30;98981.00;;;;5028511;27;103648;-63
2022/11/22 02:28:00;;;;;;;26.60;12.43;;;-2.80;99.90;-3.30;98991.00;;;;5040844;27;83678;-63
2022/11/22 02:30:26;;;;;;;24.93;12.50;;;-2.80;99.90;-3.30;98981.00;;;;5022812;27;105603;-62
2022/11/22 02:32:52;;;;;;;26.20;12.57;;;-2.90;99.90;-3.30;98971.00;;;;5029314;27;108090;-62
2022/11/22 02:35:27;;;;;;;22.10;13.10;;;-2.80;99.90;-3.30;98977.00;;;;5024412;27;112178;-62
2022/11/22 02:38:04;;;;;;;26.33;13.20;;;-2.80;99.90;-3.30;98964.00;;;;5024049;27;84834;-62
2022/11/22 02:40:37;;;;;;;19.80;12.77;;;-2.90;99.90;-3.30;98963.00;;;;5030665;27;101073;-61
2022/11/22 02:43:09;;;;;;;22.43;12.13;;;-2.80;99.90;-3.30;98965.00;;;;5034567;27;83627;-62
2022/11/22 02:45:34;;;;;;;20.00;11.27;;;-2.80;99.90;-3.30;98961.00;;;;5041532;27;103463;-63
2022/11/22 02:48:06;;;;;;;23.03;13.10;;;-2.90;99.90;-3.30;98954.00;;;;5035362;27;106309;-63
2022/11/22 02:50:32;;;;;;;23.47;12.27;;;-2.80;99.90;-3.30;98954.00;;;;5028560;27;83930;-63
2022/11/22 02:52:57;;;;;;;23.87;12.97;;;-2.80;99.90;-3.30;98947.00;;;;5034739;27;109198;-64
2022/11/22 02:55:23;;;;;;;24.87;12.40;;;-2.80;99.90;-3.30;98944.00;;;;5028394;27;112170;-63
2022/11/22 02:57:48;;;;;;;21.70;12.40;;;-2.90;99.90;-3.30;98966.00;;;;5036976;27;112849;-63
2022/11/22 03:00:15;;;;;;;22.03;13.17;;;-2.90;99.90;-3.30;98951.00;;;;5027808;27;113659;-63
2022/11/22 03:02:40;;;;;;;21.50;13.20;;;-2.90;99.90;-3.30;98952.00;;;;5041066;27;89702;-63
2022/11/22 03:05:06;;;;;;;21.37;12.13;;;-2.80;99.90;-3.30;98959.00;;;;5039459;27;112110;-64
2022/11/22 03:07:32;;;;;;;22.77;12.07;;;-2.90;99.90;-3.30;98965.00;;;;5031169;27;104645;-63
2022/11/22 03:09:58;;;;;;;21.30;13.10;;;-2.90;99.90;-3.40;98957.00;;;;5033086;27;113056;-62
2022/11/22 03:12:23;;;;;;;22.80;13.00;;;-2.90;99.90;-3.40;98957.00;;;;5037069;27;107976;-63
2022/11/22 03:14:49;;;;;;;22.40;13.30;;;-2.90;99.90;-3.40;98944.00;;;;5036751;27;111275;-62
2022/11/22 03:17:15;;;;;;;22.40;11.93;;;-2.90;99.90;-3.40;98951.00;;;;5022302;27;113612;-63
2022/11/22 03:19:41;;;;;;;21.20;12.03;;;-2.90;99.90;-3.50;98950.00;;;;5038605;27;111369;-63
2022/11/22 03:22:07;;;;;;;22.67;12.23;;;-3.00;99.90;-3.50;98955.00;;;;5032874;27;106309;-62
2022/11/22 03:24:32;;;;;;;21.47;12.67;;;-3.00;99.90;-3.50;98945.00;;;;5038066;27;113162;-62
2022/11/22 03:26:58;;;;;;;23.83;13.80;;;-3.10;99.90;-3.50;98953.00;;;;5030050;27;113465;-64
2022/11/22 03:29:24;;;;;;;22.73;12.50;;;-3.00;99.90;-3.60;98947.00;;;;5031577;27;84307;-64
2022/11/22 03:31:49;;;;;;;20.13;12.07;;;-3.10;99.90;-3.60;98950.00;;;;5032682;27;108226;-65
2022/11/22 03:34:15;;;;;;;25.57;13.57;;;-3.10;99.90;-3.60;98948.00;;;;5034798;27;113543;-62
2022/11/22 03:36:41;;;;;;;22.10;12.77;;;-3.10;99.90;-3.60;98942.00;;;;5037684;27;84246;-62
2022/11/22 03:39:06;;;;;;;26.27;13.43;;;-3.00;99.90;-3.60;98942.00;;;;5053458;27;94490;-64
2022/11/22 03:41:32;;;;;;;19.43;11.73;;;-3.10;99.90;-3.60;98956.00;;;;5039703;27;108011;-63
2022/11/22 03:43:57;;;;;;;24.57;14.00;;;-3.80;99.90;-3.60;98944.00;;;;5038685;27;87476;-66
2022/11/22 03:46:23;;;;;;;23.47;13.27;;;-3.20;99.90;-3.60;98949.00;;;;5037596;27;112656;-63
2022/11/22 03:48:49;;;;;;;23.83;12.47;;;-3.20;99.90;-3.60;98946.00;;;;5040419;27;113235;-67
2022/11/22 03:51:14;;;;;;;23.33;13.30;;;-3.20;99.90;-3.60;98942.00;;;;5031578;27;108817;-65
2022/11/22 03:53:40;;;;;;;20.87;11.43;;;-3.20;99.90;-3.60;98937.00;;;;5032220;27;113125;-64
2022/11/22 03:56:06;;;;;;;18.50;11.13;;;-3.10;99.90;-3.60;98940.00;;;;5027856;27;114092;-65
2022/11/22 03:58:32;;;;;;;25.77;13.20;;;-3.20;99.90;-3.60;98943.00;;;;5039299;27;113697;-64
2022/11/22 04:00:58;;;;;;;25.53;13.40;;;-3.10;99.90;-3.60;98951.00;;;;5041611;27;85953;-63
2022/11/22 04:03:24;;;;;;;25.80;12.33;;;-3.20;99.90;-3.60;98950.00;;;;5043949;27;84901;-63
2022/11/22 04:05:50;;;;;;;24.33;12.53;;;-3.10;99.90;-3.60;98944.00;;;;5041554;27;95165;-64
2022/11/22 04:08:16;;;;;;;23.50;12.80;;;-3.10;99.90;-3.50;98944.00;;;;5038943;27;111822;-64
2022/11/22 04:10:41;;;;;;;27.03;14.53;;;-3.10;99.90;-3.50;98940.00;;;;5043004;27;108513;-63
2022/11/22 04:13:07;;;;;;;18.77;11.77;;;-3.10;99.90;-3.50;98934.00;;;;5042536;27;112499;-63
2022/11/22 04:15:33;;;;;;;24.20;13.63;;;-2.90;99.90;-3.40;98936.00;;;;5054315;27;113641;-66
2022/11/22 04:17:58;;;;;;;24.43;12.93;;;-2.90;99.90;-3.40;98931.00;;;;5038741;27;112152;-63
2022/11/22 04:23:20;;;;;;;25.17;14.57;;;-2.90;99.90;-3.30;98933.00;;;;5028681;27;83449;-65
2022/11/22 04:25:49;;;;;;;20.13;12.43;;;-2.90;99.90;-3.20;98930.00;;;;5034457;27;83504;-64
2022/11/22 04:28:17;;;;;;;21.97;13.73;;;-2.80;99.90;-3.20;98944.00;;;;5028206;27;91378;-64
2022/11/22 04:33:28;;;;;;;20.63;12.97;;;-2.70;99.90;-3.10;98940.00;;;;5041710;27;83542;-64
2022/11/22 04:35:54;;;;;;;26.37;13.27;;;-2.60;99.90;-3.10;98949.00;;;;5053353;27;83433;-64
2022/11/22 04:38:21;;;;;;;22.57;13.67;;;-2.60;99.90;-3.00;98950.00;;;;5035588;27;83311;-65
2022/11/22 04:40:47;;;;;;;24.97;13.50;;;-2.60;99.90;-3.00;98958.00;;;;5027948;27;83344;-64
2022/11/22 04:46:08;;;;;;;24.03;13.77;;;-2.40;99.90;-2.90;98953.00;;;;5026169;27;83507;-65
2022/11/22 04:48:34;;;;;;;25.70;12.90;;;-2.60;99.90;-2.90;98952.00;;;;5034352;27;94813;-64
2022/11/22 04:53:44;;;;;;;23.27;12.70;;;-2.50;99.90;-2.80;98948.00;;;;5054883;27;83572;-64
2022/11/22 04:56:11;;;;;;;24.10;12.87;;;-2.40;99.90;-2.80;98934.00;;;;5041264;27;113123;-65
2022/11/22 04:58:37;;;;;;;19.97;12.20;;;-2.40;99.90;-2.80;98933.00;;;;5031401;27;83680;-64
2022/11/22 05:01:03;;;;;;;22.13;12.53;;;-2.40;99.90;-2.80;98936.00;;;;5043741;27;87054;-64
2022/11/22 05:03:28;;;;;;;22.47;12.73;;;-2.30;99.90;-2.70;98927.00;;;;5041688;27;111661;-65
2022/11/22 05:05:54;;;;;;;24.03;12.80;;;-2.40;99.90;-2.70;98927.00;;;;5034069;27;113816;-63
2022/11/22 05:08:20;;;;;;;21.80;12.93;;;-2.30;99.90;-2.70;98930.00;;;;5040065;27;113166;-64
2022/11/22 05:10:56;;;;;;;28.83;14.10;;;-2.30;99.90;-2.70;98929.00;;;;5037684;27;108553;-64
2022/11/22 05:13:35;;;;;;;26.17;14.63;;;-2.40;99.90;-2.70;98936.00;;;;5053982;27;83698;-64
2022/11/22 05:16:03;;;;;;;22.53;13.30;;;-2.30;99.90;-2.70;98931.00;;;;5033368;27;105959;-64
2022/11/22 05:18:29;;;;;;;25.80;14.17;;;-2.20;99.90;-2.70;98930.00;;;;5041132;27;105105;-64
2022/11/22 05:20:55;;;;;;;22.87;14.60;;;-2.30;99.90;-2.70;98920.00;;;;5041047;27;108490;-64
2022/11/22 05:26:08;;;;;;;26.03;13.97;;;-2.30;99.90;-2.70;98912.00;;;;5030358;27;83553;-63
2022/11/22 05:28:36;;;;;;;21.97;13.70;;;-2.20;99.90;-2.60;98900.00;;;;5041432;27;83699;-65
2022/11/22 05:31:28;;;;;;;22.67;13.67;;;-2.30;99.90;-2.60;98892.00;;;;5055101;27;83327;-63
2022/11/22 05:33:56;;;;;;;27.97;15.07;;;-2.20;99.90;-2.60;98891.00;;;;5036032;27;83458;-63
2022/11/22 05:36:22;;;;;;;23.73;14.10;;;-2.20;99.90;-2.60;98897.00;;;;5035916;27;83556;-64
2022/11/22 05:38:50;;;;;;;20.87;12.20;;;-2.20;99.90;-2.60;98914.00;;;;5037674;27;97647;-64
2022/11/22 05:41:16;;;;;;;25.63;14.23;;;-1.10;99.90;-2.60;98928.00;;;;5037579;27;83627;-63
2022/11/22 05:43:42;;;;;;;26.27;13.67;;;-2.00;99.90;-2.50;98930.00;;;;5040167;27;109665;-63
2022/11/22 05:46:20;;;;;;;29.13;13.47;;;-2.20;99.90;-2.50;98933.00;;;;5042562;27;105204;-63
2022/11/22 05:48:46;;;;;;;27.03;14.23;;;-2.10;99.90;-2.50;98940.00;;;;5016212;27;86367;-64
2022/11/22 05:51:17;;;;;;;21.10;12.73;;;-2.00;99.90;-2.50;98927.00;;;;5046725;27;109123;-64
2022/11/22 05:53:44;;;;;;;27.10;13.47;;;-2.00;99.90;-2.40;98935.00;;;;5039615;27;83744;-64
2022/11/22 05:56:19;;;;;;;22.30;12.97;;;-1.90;99.90;-2.40;98928.00;;;;5039257;27;102023;-63
2022/11/22 05:58:45;;;;;;;28.20;14.87;;;-2.00;99.90;-2.40;98939.00;;;;5019400;27;84274;-64
2022/11/22 06:01:19;;;;;;;24.37;14.00;;;-1.90;99.90;-2.30;98941.00;;;;5015751;27;86791;-64
2022/11/22 06:03:46;;;;;;;26.03;13.27;;;-1.90;99.90;-2.30;98955.00;;;;5035938;27;102539;-64
2022/11/22 06:06:12;;;;;;;29.50;12.70;;;-1.90;99.90;-2.30;98943.00;;;;5040071;27;84597;-63
2022/11/22 06:08:40;;;;;;;26.07;13.00;;;-1.10;99.90;-2.30;98941.00;;;;5050859;27;112445;-64
2022/11/22 06:11:09;;;;;;;28.50;14.13;;;-1.80;99.90;-2.30;98942.00;;;;5037491;27;101163;-66
2022/11/22 06:13:37;;;;;;;23.03;12.67;;;-1.90;99.90;-2.20;98937.00;;;;5014157;27;86129;-64
2022/11/22 06:16:05;;;;;;;25.67;13.53;;;-1.70;99.90;-2.20;98942.00;;;;5023456;27;83818;-65
2022/11/22 06:18:31;;;;;;;22.63;12.37;;;-1.90;99.90;-2.20;98949.00;;;;5036642;27;106162;-62
2022/11/22 06:21:02;;;;;;;26.73;13.77;;;-1.80;99.90;-2.20;98944.00;;;;5038646;27;83715;-63
2022/11/22 06:23:29;;;;;;;25.43;13.87;;;-1.80;99.90;-2.20;98949.00;;;;5032524;27;83759;-63
2022/11/22 06:26:06;;;;;;;23.93;12.30;;;-1.80;99.90;-2.20;98938.00;;;;5036395;27;83942;-63
2022/11/22 06:28:35;;;;;;;28.63;14.53;;;-1.80;99.90;-2.20;98954.00;;;;5031728;27;83714;-63
2022/11/22 06:31:11;;;;;;;22.73;13.17;;;-1.80;99.90;-2.20;98942.00;;;;5040132;27;83468;-63
2022/11/22 06:33:38;;;;;;;28.03;13.43;;;-1.80;99.90;-2.20;98959.00;;;;5032272;27;83800;-64
2022/11/22 06:36:16;;;;;;;22.97;12.97;;;-1.80;99.90;-2.10;98962.00;;;;5040507;27;103786;-65
2022/11/22 06:38:43;;;;;;;24.17;12.67;;;-1.80;99.90;-2.10;98977.00;;;;5034608;27;92779;-65
2022/11/22 06:41:12;;;;;;;24.67;14.23;;;-1.70;99.90;-2.10;98973.00;;;;5038257;27;85113;-63
2022/11/22 06:43:41;;;;;;;30.93;14.30;;;-1.60;99.90;-2.00;98983.00;;;;5036279;27;83388;-63
2022/11/22 06:46:08;;;;;;;22.60;13.37;;;-1.60;99.90;-2.00;98992.00;;;;5044751;27;84562;-63
2022/11/22 06:48:37;;;;;;;26.80;14.20;;;-1.60;99.90;-2.00;98983.00;;;;5035831;27;83693;-64
2022/11/22 06:51:14;;;;;;;20.83;12.27;;;-1.50;99.90;-1.90;98996.00;;;;5031171;27;83378;-64
2022/11/22 06:53:41;;;;;;;21.60;13.63;;;-1.60;99.90;-1.90;98984.00;;;;5037340;27;83757;-63
2022/11/22 06:56:22;;;;;;;29.57;14.27;;;-1.50;99.90;-1.90;98981.00;;;;5037176;27;84060;-64
2022/11/22 06:58:49;;;;;;;30.43;13.97;;;-1.50;99.90;-1.90;98984.00;;;;5027871;27;83831;-63
2022/11/22 07:01:27;;;;;;;28.10;13.90;;;-1.50;99.90;-1.90;98996.00;;;;5034012;27;83398;-64
2022/11/22 07:03:56;;;;;;;28.10;14.30;;;-1.40;99.90;-1.80;98983.00;;;;5042187;27;83709;-63
2022/11/22 07:06:24;;;;;;;26.50;13.33;;;-1.40;99.90;-1.80;98993.00;;;;5044647;27;84119;-63
2022/11/22 07:08:50;;;;;;;28.27;14.03;;;-1.40;99.90;-1.70;98989.00;;;;5037125;27;107221;-64
2022/11/22 07:11:20;;;;;;;26.33;13.10;;;-1.40;99.90;-1.70;99002.00;;;;5040427;27;83779;-64
2022/11/22 07:13:47;;;;;;;23.37;11.83;;;-2.10;99.90;-1.60;98998.00;;;;5039333;27;83619;-63
2022/11/22 07:16:16;;;;;;;19.97;12.93;;;-1.20;99.90;-1.60;99012.00;;;;5035536;27;84173;-64
2022/11/22 07:18:43;;;;;;;25.60;14.23;;;-1.30;99.90;-1.50;99020.00;;;;5035440;27;83243;-64
2022/11/22 07:21:14;;;;;;;19.00;11.73;;;-1.20;99.90;-1.50;99014.00;;;;5019443;27;83579;-64
2022/11/22 07:23:42;;;;;;;24.90;13.13;;;-1.10;99.90;-1.40;98995.00;;;;5050298;27;83951;-63
2022/11/22 07:26:09;;;;;;;28.43;12.73;;;-1.00;99.90;-1.40;98997.00;;;;5029484;27;83800;-64
2022/11/22 07:28:36;;;;;;;24.77;12.57;;;-1.00;99.90;-1.40;98997.00;;;;5036052;27;101183;-63
2022/11/22 07:31:05;;;;;;;24.83;13.50;;;-1.10;99.90;-1.30;98992.00;;;;5038725;27;86858;-63
2022/11/22 07:33:32;;;;;;;23.93;12.60;;;-1.00;99.90;-1.30;98987.00;;;;5035128;27;83485;-64
2022/11/22 07:36:19;;;;;;;28.67;12.97;;;-0.80;99.90;-1.20;98983.00;;;;5039247;27;86476;-63
2022/11/22 07:38:46;;;;;;;27.23;13.27;;;-0.90;99.90;-1.10;98993.00;;;;5029762;27;84574;-63
2022/11/22 07:41:13;;;;;;;28.13;12.93;;;-0.90;99.90;-1.10;99001.00;;;;5035956;27;83487;-63
2022/11/22 07:43:40;;;;;;;20.27;11.97;;;-0.80;99.90;-1.00;98999.00;;;;5047759;27;84452;-63
2022/11/22 07:46:20;;;;;;;22.60;12.33;;;-0.80;99.90;-1.00;98988.00;;;;5038227;27;83644;-63
2022/11/22 07:48:48;;;;;;;28.57;14.87;;;-0.60;99.90;-1.00;98978.00;;;;5009646;27;84135;-64
2022/11/22 07:51:14;;;;;;;22.00;12.77;;;-0.70;99.90;-0.90;98987.00;;;;5035196;27;83469;-63
2022/11/22 07:53:40;;;;;;;42.00;23.43;;;-0.50;99.90;-0.90;98985.00;;;;5034562;27;83439;-63
2022/11/22 07:56:06;;;;;;;30.77;16.83;;;-0.50;99.90;-0.80;98997.00;;;;5033793;27;110928;-63
2022/11/22 07:58:33;;;;;;;39.03;20.60;;;-0.50;99.90;-0.80;98997.00;;;;5037734;27;89350;-63
2022/11/22 08:01:15;;;;;;;25.57;16.20;;;-0.50;99.90;-0.70;99005.00;;;;5051228;27;83552;-64
2022/11/22 08:03:42;;;;;;;29.13;22.97;;;-0.40;99.90;-0.60;99009.00;;;;5035497;27;84182;-63
2022/11/22 08:06:10;;;;;;;24.73;13.60;;;-0.30;99.90;-0.60;99010.00;;;;5035311;27;84257;-62
2022/11/22 08:08:36;;;;;;;22.10;14.17;;;-0.30;99.90;-0.50;99020.00;;;;5037053;27;104236;-63
2022/11/22 08:11:02;;;;;;;23.43;16.20;;;-0.20;99.90;-0.50;99016.00;;;;5038588;27;93850;-62
2022/11/22 08:13:29;;;;;;;19.57;12.60;;;-0.20;99.90;-0.50;99029.00;;;;5036306;27;104602;-63
2022/11/22 08:16:10;;;;;;;21.87;12.10;;;-0.20;99.90;-0.40;99025.00;;;;5037036;27;83409;-62
2022/11/22 08:18:37;;;;;;;20.20;11.40;;;-0.10;99.90;-0.40;99016.00;;;;5024067;27;104388;-62
2022/11/22 08:21:11;;;;;;;21.97;11.40;;;-0.10;99.90;-0.30;99015.00;;;;5043813;27;83565;-62
2022/11/22 08:23:38;;;;;;;25.00;14.40;;;0.10;99.90;-0.30;99026.00;;;;5038113;27;83596;-62
2022/11/22 08:26:05;;;;;;;26.33;14.33;;;-0.10;99.90;-0.30;99005.00;;;;5031815;27;84093;-63
2022/11/22 08:28:31;;;;;;;23.27;14.43;;;0.00;99.90;-0.20;99011.00;;;;5027734;27;84572;-63
2022/11/22 08:31:07;;;;;;;22.87;13.23;;;0.00;99.90;-0.20;99032.00;;;;5031599;27;85915;-63
2022/11/22 08:33:33;;;;;;;18.47;11.07;;;0.10;99.90;-0.20;99029.00;;;;5039521;27;83768;-63
2022/11/22 08:35:59;;;;;;;20.23;11.43;;;0.10;99.90;-0.10;99033.00;;;;5038684;27;112686;-62
2022/11/22 08:38:26;;;;;;;21.23;12.03;;;0.30;99.90;-0.10;99042.00;;;;5048080;27;101383;-63
2022/11/22 08:40:52;;;;;;;112.77;67.23;;;0.20;99.90;-0.10;99054.00;;;;5035115;27;83714;-63
2022/11/22 08:43:17;;;;;;;27.97;15.23;;;0.40;99.90;0.00;99030.00;;;;5035695;27;93318;-60
2022/11/22 08:45:43;;;;;;;17.43;10.93;;;0.30;99.90;0.00;99036.00;;;;5040149;27;84571;-62
2022/11/22 08:48:09;;;;;;;22.30;11.37;;;0.20;99.90;0.00;99041.00;;;;5033442;27;111962;-62
2022/11/22 08:50:34;;;;;;;23.83;13.97;;;-0.40;99.90;0.10;99058.00;;;;5033060;27;108878;-62
2022/11/22 08:53:00;;;;;;;18.13;10.57;;;0.40;99.90;0.10;99058.00;;;;5036244;27;112949;-62
2022/11/22 08:55:26;;;;;;;21.43;12.60;;;0.60;99.90;0.20;99058.00;;;;5042998;27;112448;-62
2022/11/22 08:57:52;;;;;;;15.60;10.43;;;0.50;99.90;0.20;99043.00;;;;5047132;27;113932;-61
2022/11/22 09:00:18;;;;;;;26.90;15.70;;;1.40;99.90;0.30;99039.00;;;;5015783;27;108522;-58
2022/11/22 09:02:43;;;;;;;17.20;11.90;;;0.60;99.90;0.30;99029.00;;;;5026303;27;93899;-61
2022/11/22 09:05:09;;;;;;;23.97;11.97;;;0.50;99.90;0.30;99030.00;;;;5031366;27;113422;-61
2022/11/22 09:07:35;;;;;;;20.47;12.00;;;0.50;99.90;0.40;99038.00;;;;5024847;27;112311;-61
2022/11/22 09:10:00;;;;;;;17.93;11.17;;;0.60;99.90;0.40;99028.00;;;;5035573;27;83686;-62
2022/11/22 09:12:26;;;;;;;21.47;11.53;;;1.40;99.90;0.50;99041.00;;;;5043042;27;94037;-63
2022/11/22 09:14:52;;;;;;;15.53;9.77;;;0.80;99.90;0.50;99050.00;;;;5027243;27;84686;-63
2022/11/22 09:17:17;;;;;;;19.07;11.63;;;0.70;99.90;0.50;99036.00;;;;5047901;27;112939;-64
2022/11/22 09:19:43;;;;;;;15.43;10.50;;;0.70;99.90;0.50;99051.00;;;;5034341;27;83339;-64
2022/11/22 09:22:09;;;;;;;19.23;12.80;;;0.80;99.90;0.60;99048.00;;;;5040439;27;99259;-64
2022/11/22 09:24:34;;;;;;;17.43;11.80;;;0.80;99.90;0.60;99050.00;;;;5041423;27;111075;-65
2022/11/22 09:27:00;;;;;;;23.97;10.80;;;0.90;99.90;0.60;99047.00;;;;5033165;27;114105;-64
2022/11/22 09:29:26;;;;;;;20.60;11.20;;;1.00;99.90;0.70;99035.00;;;;5039362;27;108442;-65
2022/11/22 09:31:52;;;;;;;26.57;14.37;;;0.80;99.90;0.80;99047.00;;;;5040632;27;83431;-65
2022/11/22 09:34:17;;;;;;;27.13;16.40;;;1.10;99.90;0.80;99048.00;;;;5048959;27;113319;-65
2022/11/22 09:36:43;;;;;;;19.93;12.97;;;1.00;99.90;0.90;99037.00;;;;5020882;27;83785;-64
2022/11/22 09:39:09;;;;;;;20.63;12.27;;;1.10;99.90;0.90;99040.00;;;;5039318;27;83262;-65
2022/11/22 09:41:56;;;;;;;25.40;14.90;;;1.20;99.90;1.00;99059.00;;;;5041773;27;111040;-65
2022/11/22 09:44:44;;;;;;;14.87;10.70;;;1.20;99.90;1.00;99052.00;;;;5028672;27;84050;-65
2022/11/22 09:47:46;;;;;;;21.63;11.07;;;1.30;99.90;1.00;99055.00;;;;5034508;27;84707;-66
2022/11/22 09:50:34;;;;;;;12.83;8.80;;;1.30;99.90;1.10;99060.00;;;;5020237;27;83370;-65
2022/11/22 09:53:28;;;;;;;15.97;10.00;;;2.30;99.90;1.10;99066.00;;;;5025789;27;83829;-66
2022/11/22 09:55:59;;;;;;;23.90;17.40;;;1.50;99.90;1.20;99060.00;;;;5015987;27;86884;-66
2022/11/22 09:58:40;;;;;;;24.77;15.50;;;1.50;99.90;1.30;99058.00;;;;5018775;27;83941;-65
2022/11/22 10:01:44;;;;;;;19.03;10.73;;;1.60;99.90;1.30;99073.00;;;;5021603;27;83435;-66
2022/11/22 10:04:38;;;;;;;11.00;9.23;;;2.40;99.90;1.40;99077.00;;;;5021306;27;84164;-65
2022/11/22 10:07:18;;;;;;;12.43;9.30;;;0.90;99.90;1.40;99076.00;;;;5038612;27;104907;-65
2022/11/22 10:10:12;;;;;;;13.63;11.77;;;1.70;99.90;1.50;99075.00;;;;5038089;27;83018;-66
2022/11/22 10:13:00;;;;;;;13.23;8.57;;;1.70;99.90;1.60;99077.00;;;;5029927;27;83477;-66
2022/11/22 10:16:02;;;;;;;11.83;8.90;;;1.90;99.90;1.70;99074.00;;;;5041707;27;82913;-66
2022/11/22 10:18:53;;;;;;;16.90;10.80;;;1.90;99.90;2.00;99081.00;;;;5040336;27;83724;-67
2022/11/22 10:21:19;;;;;;;18.37;10.50;;;2.20;99.90;2.20;99067.00;;;;5019350;27;83690;-67
2022/11/22 10:23:46;;;;;;;14.17;8.97;;;2.30;99.90;2.40;99062.00;;;;5036890;27;109679;-66
2022/11/22 10:26:31;;;;;;;30.60;23.73;;;2.60;99.90;2.60;99059.00;;;;5034047;27;84015;-66
2022/11/22 10:29:41;;;;;;;39.53;25.97;;;2.70;99.90;2.80;99063.00;;;;5038907;27;83529;-66
2022/11/22 10:32:42;;;;;;;15.97;9.97;;;2.90;99.90;3.00;99059.00;;;;5031560;27;83460;-67
2022/11/22 10:35:29;;;;;;;13.60;7.43;;;3.10;99.90;3.00;99069.00;;;;5033323;27;97908;-66
2022/11/22 10:38:16;;;;;;;12.13;8.63;;;3.20;99.90;3.00;99074.00;;;;5037575;27;83198;-66
2022/11/22 10:41:06;;;;;;;17.93;15.27;;;3.20;99.90;2.90;99072.00;;;;5042612;27;82272;-66
2022/11/22 10:43:46;;;;;;;12.43;8.23;;;3.20;99.90;2.90;99070.00;;;;5038922;27;83421;-66
2022/11/22 10:46:23;;;;;;;11.70;8.33;;;3.10;99.90;2.90;99078.00;;;;5030573;27;102029;-66
2022/11/22 10:49:09;;;;;;;15.73;8.67;;;3.10;99.90;2.90;99082.00;;;;5005618;27;85794;-68
2022/11/22 10:52:16;;;;;;;13.00;7.03;;;3.10;99.90;2.90;99071.00;;;;5021980;27;104752;-67
2022/11/22 10:55:18;;;;;;;15.77;9.40;;;3.00;99.90;2.90;99068.00;;;;5018605;27;96183;-66
2022/11/22 10:58:03;;;;;;;11.87;6.17;;;3.20;99.90;2.90;99059.00;;;;5026285;27;82747;-67
2022/11/22 11:00:32;;;;;;;11.57;7.87;;;3.10;99.90;3.10;99072.00;;;;5041283;27;93398;-66
2022/11/22 11:03:22;;;;;;;11.83;7.07;;;3.30;99.90;3.30;99074.00;;;;5036475;27;92409;-67
2022/11/22 11:06:23;;;;;;;10.83;6.30;;;3.40;99.90;3.40;99068.00;;;;5033822;27;82722;-67
2022/11/22 11:08:58;;;;;;;10.17;6.97;;;3.50;99.90;3.70;99069.00;;;;5017823;27;82076;-66